createdAt,value
2022-10-29T00:01:01.799Z,9.56
2022-10-29T00:03:29.061Z,9.54
2022-10-29T00:05:59.521Z,9.56
2022-10-29T00:08:28.557Z,9.67
2022-10-29T00:10:56.189Z,9.78
2022-10-29T00:13:23.720Z,9.63
2022-10-29T00:15:50.950Z,9.67
2022-10-29T00:18:18.211Z,9.68
2022-10-29T00:20:45.554Z,9.59
2022-10-29T00:23:12.902Z,9.42
2022-10-29T00:25:40.151Z,9.31
2022-10-29T00:28:07.407Z,9.23
2022-10-29T00:30:35.816Z,9.15
2022-10-29T00:33:03.029Z,9.03
2022-10-29T00:35:30.219Z,8.94
2022-10-29T00:37:57.688Z,8.91
2022-10-29T00:40:25.188Z,8.91
2022-10-29T00:42:52.371Z,8.99
2022-10-29T00:45:21.256Z,9.18
2022-10-29T00:47:53.549Z,9.29
2022-10-29T00:50:23.706Z,9.13
2022-10-29T00:52:52.202Z,9.05
2022-10-29T00:55:20.985Z,9.16
2022-10-29T00:57:54.767Z,9.26
2022-10-29T01:00:22.453Z,9.39
2022-10-29T01:02:50.203Z,9.46
2022-10-29T01:05:21.623Z,9.55
2022-10-29T01:07:49.546Z,9.47
2022-10-29T01:10:22.807Z,9.37
2022-10-29T01:13:22.453Z,9.36
2022-10-29T01:16:11.319Z,9.33
2022-10-29T01:18:58.281Z,9.28
2022-10-29T01:21:38.672Z,9.25
2022-10-29T01:24:14.502Z,9.34
2022-10-29T01:27:20.497Z,9.50
2022-10-29T01:30:13.703Z,9.63
2022-10-29T01:33:09.975Z,9.71
2022-10-29T01:36:19.143Z,9.64
2022-10-29T01:39:26.688Z,9.53
2022-10-29T01:42:28.902Z,9.32
2022-10-29T01:45:33.944Z,9.29
2022-10-29T01:48:12.106Z,9.50
2022-10-29T01:50:44.587Z,9.64
2022-10-29T01:53:12.086Z,9.56
2022-10-29T01:55:39.441Z,9.37
2022-10-29T01:58:07.667Z,9.46
2022-10-29T02:00:56.747Z,9.54
2022-10-29T02:04:03.832Z,9.64
2022-10-29T02:07:30.553Z,9.72
2022-10-29T02:10:19.751Z,9.62
2022-10-29T02:12:54.092Z,9.50
2022-10-29T02:15:48.499Z,9.36
2022-10-29T02:18:17.278Z,9.27
2022-10-29T02:20:46.865Z,9.27
2022-10-29T02:23:15.418Z,9.27
2022-10-29T02:25:42.931Z,9.23
2022-10-29T02:28:10.441Z,9.15
2022-10-29T02:30:37.687Z,9.11
2022-10-29T02:33:05.044Z,9.08
2022-10-29T02:35:32.355Z,9.05
2022-10-29T02:37:59.577Z,8.84
2022-10-29T02:40:26.800Z,8.62
2022-10-29T02:42:54.959Z,8.44
2022-10-29T02:45:22.595Z,8.52
2022-10-29T02:47:49.818Z,8.53
2022-10-29T02:50:17.124Z,8.47
2022-10-29T02:52:44.312Z,8.34
2022-10-29T02:55:11.536Z,8.34
2022-10-29T02:57:38.749Z,8.42
2022-10-29T03:00:06.861Z,8.24
2022-10-29T03:02:34.193Z,8.18
2022-10-29T03:05:01.596Z,8.11
2022-10-29T03:07:28.927Z,7.99
2022-10-29T03:09:56.124Z,7.97
2022-10-29T03:12:23.323Z,7.97
2022-10-29T03:14:50.575Z,8.13
2022-10-29T03:17:17.747Z,8.29
2022-10-29T03:19:44.917Z,8.29
2022-10-29T03:22:12.114Z,8.36
2022-10-29T03:24:39.320Z,8.26
2022-10-29T03:27:06.636Z,8.20
2022-10-29T03:29:33.804Z,8.26
2022-10-29T03:32:01.049Z,8.19
2022-10-29T03:34:28.340Z,8.18
2022-10-29T03:36:55.525Z,8.21
2022-10-29T03:39:22.715Z,8.24
2022-10-29T03:41:49.885Z,8.18
2022-10-29T03:44:17.173Z,8.27
2022-10-29T03:46:44.353Z,8.51
2022-10-29T03:49:11.606Z,8.79
2022-10-29T03:51:39.687Z,8.63
2022-10-29T03:54:06.861Z,8.63
2022-10-29T03:56:34.058Z,8.67
2022-10-29T03:59:01.220Z,8.97
2022-10-29T04:01:28.622Z,9.11
2022-10-29T04:03:55.857Z,9.29
2022-10-29T04:06:23.266Z,9.42
2022-10-29T04:08:50.526Z,9.64
2022-10-29T04:11:17.650Z,9.86
2022-10-29T04:13:44.846Z,9.94
2022-10-29T04:16:12.082Z,9.64
2022-10-29T04:18:39.379Z,9.62
2022-10-29T04:27:01.739Z,9.66
2022-10-29T04:29:30.792Z,9.90
2022-10-29T04:31:58.020Z,9.93
2022-10-29T04:34:25.326Z,9.89
2022-10-29T04:36:53.710Z,9.82
2022-10-29T04:39:23.379Z,9.80
2022-10-29T04:41:50.952Z,9.85
2022-10-29T04:44:21.849Z,9.84
2022-10-29T04:46:49.178Z,9.77
2022-10-29T04:49:16.551Z,9.61
2022-10-29T04:51:43.903Z,9.38
2022-10-29T04:54:11.480Z,9.18
2022-10-29T04:56:38.668Z,9.25
2022-10-29T04:59:05.880Z,9.21
2022-10-29T05:01:33.316Z,8.88
2022-10-29T05:04:00.652Z,9.01
2022-10-29T05:06:27.923Z,9.12
2022-10-29T05:08:55.135Z,9.07
2022-10-29T05:11:22.355Z,9.15
2022-10-29T05:13:52.091Z,9.18
2022-10-29T05:16:19.396Z,9.05
2022-10-29T05:18:46.697Z,9.10
2022-10-29T05:21:14.069Z,9.25
2022-10-29T05:23:41.384Z,9.21
2022-10-29T05:26:08.601Z,9.29
2022-10-29T05:28:36.083Z,9.38
2022-10-29T05:31:03.410Z,9.24
2022-10-29T05:33:30.697Z,9.36
2022-10-29T05:36:01.183Z,9.38
2022-10-29T05:38:28.467Z,9.43
2022-10-29T05:40:59.476Z,9.47
2022-10-29T05:43:27.012Z,9.49
2022-10-29T05:45:54.549Z,9.56
2022-10-29T05:48:21.780Z,9.53
2022-10-29T05:50:49.237Z,9.59
2022-10-29T05:53:16.525Z,9.56
2022-10-29T05:55:43.800Z,9.66
2022-10-29T05:58:13.523Z,9.66
2022-10-29T06:00:44.065Z,9.83
2022-10-29T06:03:18.134Z,9.89
2022-10-29T06:05:47.762Z,9.97
2022-10-29T06:08:15.589Z,10.11
2022-10-29T06:10:42.966Z,10.20
2022-10-29T06:13:21.729Z,10.23
2022-10-29T06:15:50.358Z,10.32
2022-10-29T06:18:17.643Z,10.42
2022-10-29T06:20:44.961Z,10.41
2022-10-29T06:23:12.290Z,10.37
2022-10-29T06:25:39.808Z,10.43
2022-10-29T06:28:12.264Z,10.57
2022-10-29T06:30:39.578Z,10.68
2022-10-29T06:33:07.282Z,10.68
2022-10-29T06:38:10.844Z,11.17
2022-10-29T06:40:40.502Z,11.51
2022-10-29T06:43:12.551Z,11.92
2022-10-29T06:45:40.008Z,12.05
2022-10-29T06:48:07.472Z,12.08
2022-10-29T06:50:34.950Z,12.26
2022-10-29T06:53:09.715Z,12.53
2022-10-29T06:55:36.949Z,12.67
2022-10-29T06:58:08.218Z,12.99
2022-10-29T07:00:35.892Z,13.27
2022-10-29T07:03:05.168Z,13.63
2022-10-29T07:05:34.001Z,14.00
2022-10-29T07:08:02.101Z,14.30
2022-10-29T07:10:31.815Z,14.76
2022-10-29T07:13:00.006Z,15.46
2022-10-29T07:15:30.328Z,16.46
2022-10-29T07:18:07.557Z,16.86
2022-10-29T07:20:38.789Z,17.72
2022-10-29T07:23:06.223Z,18.26
2022-10-29T07:25:36.389Z,18.79
2022-10-29T07:28:06.390Z,18.51
2022-10-29T07:30:34.470Z,18.13
2022-10-29T07:33:01.882Z,17.25
2022-10-29T07:35:29.460Z,16.66
2022-10-29T07:38:09.126Z,16.02
2022-10-29T07:40:48.404Z,16.01
2022-10-29T07:43:16.816Z,16.18
2022-10-29T07:45:47.150Z,16.74
2022-10-29T07:48:14.339Z,17.48
2022-10-29T07:50:42.024Z,18.00
2022-10-29T07:53:09.953Z,18.95
2022-10-29T07:55:37.525Z,20.83
2022-10-29T07:58:08.661Z,22.18
2022-10-29T08:00:39.922Z,23.89
2022-10-29T08:03:07.290Z,23.43
2022-10-29T08:05:35.094Z,21.73
2022-10-29T08:08:02.548Z,20.31
2022-10-29T08:10:31.313Z,19.21
2022-10-29T08:13:03.160Z,18.21
2022-10-29T08:15:33.380Z,17.42
2022-10-29T08:18:01.788Z,17.45
2022-10-29T08:20:30.735Z,17.30
2022-10-29T08:23:00.929Z,16.95
2022-10-29T08:25:28.622Z,17.32
2022-10-29T08:28:04.872Z,17.45
2022-10-29T08:30:32.930Z,18.53
2022-10-29T08:33:01.679Z,20.41
2022-10-29T08:35:30.103Z,21.80
2022-10-29T08:37:57.670Z,22.51
2022-10-29T08:40:31.637Z,23.12
2022-10-29T08:43:55.680Z,23.90
2022-10-29T08:46:42.386Z,24.77
2022-10-29T08:49:21.937Z,24.95
2022-10-29T08:51:58.756Z,23.38
2022-10-29T08:54:31.771Z,22.34
2022-10-29T08:57:33.365Z,23.76
2022-10-29T09:00:16.960Z,24.22
2022-10-29T09:02:44.881Z,25.01
2022-10-29T09:05:21.230Z,25.41
2022-10-29T09:08:20.486Z,25.72
2022-10-29T09:11:06.185Z,27.00
2022-10-29T09:14:15.640Z,27.67
2022-10-29T09:16:57.380Z,28.06
2022-10-29T09:19:47.513Z,29.04
2022-10-29T09:22:47.756Z,29.02
2022-10-29T09:25:55.925Z,29.06
2022-10-29T09:28:45.049Z,29.48
2022-10-29T09:31:28.710Z,29.29
2022-10-29T09:34:04.569Z,29.28
2022-10-29T09:36:32.843Z,29.88
2022-10-29T09:39:10.111Z,29.04
2022-10-29T09:41:39.113Z,28.95
2022-10-29T09:44:41.521Z,29.29
2022-10-29T09:47:51.122Z,29.43
2022-10-29T09:50:56.742Z,28.83
2022-10-29T09:53:24.501Z,27.96
2022-10-29T09:55:54.879Z,27.64
2022-10-29T09:58:26.036Z,27.45
2022-10-29T10:00:55.043Z,26.82
2022-10-29T10:03:42.034Z,26.69
2022-10-29T10:06:12.987Z,26.31
2022-10-29T10:09:05.018Z,26.34
2022-10-29T10:11:49.282Z,26.29
2022-10-29T10:14:24.184Z,25.74
2022-10-29T10:17:03.222Z,26.59
2022-10-29T10:19:32.843Z,26.99
2022-10-29T10:22:16.549Z,27.79
2022-10-29T10:24:43.853Z,27.98
2022-10-29T10:27:20.478Z,27.62
2022-10-29T10:30:12.750Z,27.44
2022-10-29T10:32:40.198Z,28.80
2022-10-29T10:35:30.938Z,30.34
2022-10-29T10:38:06.634Z,30.84
2022-10-29T10:40:33.962Z,30.94
2022-10-29T10:43:05.514Z,30.56
2022-10-29T10:45:40.209Z,31.05
2022-10-29T10:48:14.664Z,30.68
2022-10-29T10:50:42.120Z,31.71
2022-10-29T10:53:23.067Z,32.10
2022-10-29T10:55:57.986Z,30.62
2022-10-29T10:58:41.687Z,29.26
2022-10-29T11:01:23.856Z,27.83
2022-10-29T11:04:13.106Z,27.85
2022-10-29T11:06:49.866Z,26.54
2022-10-29T11:09:37.675Z,25.72
2022-10-29T11:12:44.475Z,26.84
2022-10-29T11:15:36.443Z,26.03
2022-10-29T11:18:42.320Z,24.08
2022-10-29T11:21:29.285Z,23.08
2022-10-29T11:24:18.161Z,22.57
2022-10-29T11:26:59.939Z,21.90
2022-10-29T11:30:10.119Z,22.66
2022-10-29T11:33:02.455Z,22.84
2022-10-29T11:36:21.287Z,24.24
2022-10-29T11:39:19.298Z,24.66
2022-10-29T11:41:49.587Z,25.15
2022-10-29T11:44:20.791Z,25.40
2022-10-29T11:47:27.948Z,24.62
2022-10-29T11:50:21.147Z,24.93
2022-10-29T11:52:54.842Z,24.16
2022-10-29T11:55:46.477Z,23.98
2022-10-29T11:58:42.899Z,23.88
2022-10-29T12:01:37.967Z,24.18
2022-10-29T12:04:47.525Z,23.77
2022-10-29T12:07:22.434Z,22.41
2022-10-29T12:10:02.137Z,21.46
2022-10-29T12:12:48.316Z,20.77
2022-10-29T12:15:47.113Z,20.14
2022-10-29T12:18:30.611Z,19.40
2022-10-29T12:21:22.629Z,19.40
2022-10-29T12:24:11.310Z,19.00
2022-10-29T12:26:46.605Z,19.00
2022-10-29T12:29:27.890Z,18.95
2022-10-29T12:32:20.338Z,18.84
2022-10-29T12:34:55.974Z,18.91
2022-10-29T12:37:38.008Z,18.54
2022-10-29T12:40:26.036Z,18.03
2022-10-29T12:42:54.918Z,17.63
2022-10-29T12:46:06.357Z,17.47
2022-10-29T12:48:49.670Z,17.51
2022-10-29T12:51:49.078Z,17.47
2022-10-29T12:54:41.161Z,17.52
2022-10-29T12:57:14.563Z,17.30
2022-10-29T12:59:47.174Z,17.48
2022-10-29T13:02:38.826Z,16.70
2022-10-29T13:05:09.820Z,16.39
2022-10-29T13:07:46.443Z,16.52
2022-10-29T13:10:22.586Z,16.56
2022-10-29T13:12:55.692Z,16.70
2022-10-29T13:15:34.853Z,16.63
2022-10-29T13:18:37.648Z,16.61
2022-10-29T13:21:08.744Z,16.61
2022-10-29T13:23:37.719Z,16.51
2022-10-29T13:26:09.488Z,16.53
2022-10-29T13:28:36.695Z,16.40
2022-10-29T13:31:06.878Z,16.56
2022-10-29T13:33:34.038Z,16.60
2022-10-29T13:36:16.549Z,16.70
2022-10-29T13:39:07.369Z,16.73
2022-10-29T13:41:43.394Z,16.62
2022-10-29T13:44:23.667Z,16.28
2022-10-29T13:47:05.302Z,16.18
2022-10-29T13:49:37.688Z,16.26
2022-10-29T13:52:09.057Z,16.13
2022-10-29T13:55:06.423Z,15.88
2022-10-29T13:57:59.516Z,15.64
2022-10-29T14:00:28.222Z,15.54
2022-10-29T14:03:17.018Z,15.47
2022-10-29T14:06:14.079Z,15.54
2022-10-29T14:08:49.054Z,15.37
2022-10-29T14:11:29.934Z,15.43
2022-10-29T14:14:31.340Z,15.41
2022-10-29T14:17:16.320Z,15.45
2022-10-29T14:19:49.485Z,15.36
2022-10-29T14:22:28.685Z,15.21
2022-10-29T14:24:57.096Z,14.99
2022-10-29T14:27:24.317Z,15.01
2022-10-29T14:29:53.162Z,14.93
2022-10-29T14:32:22.833Z,14.89
2022-10-29T14:34:51.862Z,14.77
2022-10-29T14:37:37.693Z,14.68
2022-10-29T14:40:21.412Z,14.60
2022-10-29T14:42:54.058Z,14.44
2022-10-29T14:45:28.416Z,14.37
2022-10-29T14:48:10.131Z,14.24
2022-10-29T14:50:37.647Z,14.18
2022-10-29T14:53:18.568Z,14.08
2022-10-29T14:55:49.275Z,14.06
2022-10-29T14:58:30.018Z,14.12
2022-10-29T15:01:03.645Z,14.10
2022-10-29T15:03:34.037Z,13.90
2022-10-29T15:06:26.026Z,13.83
2022-10-29T15:09:01.488Z,13.80
2022-10-29T15:11:38.726Z,13.81
2022-10-29T15:14:32.987Z,13.78
2022-10-29T15:17:01.539Z,13.66
2022-10-29T15:19:29.172Z,13.49
2022-10-29T15:21:56.471Z,13.49
2022-10-29T15:24:24.553Z,13.47
2022-10-29T15:26:56.511Z,13.33
2022-10-29T15:29:34.031Z,13.21
2022-10-29T15:32:02.924Z,13.08
2022-10-29T15:34:40.497Z,12.99
2022-10-29T15:37:39.104Z,12.81
2022-10-29T15:40:24.290Z,12.89
2022-10-29T15:42:53.103Z,12.98
2022-10-29T15:45:23.896Z,12.99
2022-10-29T15:48:09.167Z,12.93
2022-10-29T15:50:43.479Z,12.85
2022-10-29T15:53:17.681Z,12.70
2022-10-29T15:55:45.197Z,12.60
2022-10-29T15:58:18.183Z,12.52
2022-10-29T16:00:46.417Z,12.28
2022-10-29T16:03:26.758Z,12.18
2022-10-29T16:06:03.949Z,12.19
2022-10-29T16:08:39.548Z,12.32
2022-10-29T16:11:16.112Z,12.37
2022-10-29T16:13:43.478Z,12.29
2022-10-29T16:16:18.762Z,12.31
2022-10-29T16:18:49.078Z,12.32
2022-10-29T16:21:26.075Z,12.38
2022-10-29T16:23:53.780Z,12.33
2022-10-29T16:26:24.791Z,12.22
2022-10-29T16:28:55.638Z,12.19
2022-10-29T16:31:27.509Z,12.25
2022-10-29T16:33:59.039Z,12.24
2022-10-29T16:36:26.494Z,12.30
2022-10-29T16:38:53.715Z,12.47
2022-10-29T16:41:21.584Z,12.50
2022-10-29T16:43:49.188Z,12.39
2022-10-29T16:46:16.572Z,12.27
2022-10-29T16:48:44.227Z,12.22
2022-10-29T16:51:11.458Z,12.29
2022-10-29T16:53:39.106Z,12.29
2022-10-29T16:56:06.876Z,12.30
2022-10-29T16:58:34.293Z,12.16
2022-10-29T17:01:10.722Z,12.10
2022-10-29T17:03:39.314Z,12.06
2022-10-29T17:06:10.529Z,12.00
2022-10-29T17:08:38.948Z,11.87
2022-10-29T17:11:10.283Z,11.92
2022-10-29T17:13:38.679Z,11.96
2022-10-29T17:16:08.389Z,12.06
2022-10-29T17:18:35.794Z,12.02
2022-10-29T17:21:04.120Z,12.05
2022-10-29T17:23:32.932Z,12.04
2022-10-29T17:26:00.818Z,11.90
2022-10-29T17:28:28.747Z,11.86
2022-10-29T17:30:56.116Z,11.75
2022-10-29T17:33:23.548Z,11.74
2022-10-29T17:36:00.160Z,11.74
2022-10-29T17:38:27.492Z,11.76
2022-10-29T17:40:54.721Z,11.69
2022-10-29T17:43:22.217Z,11.60
2022-10-29T17:45:50.667Z,11.56
2022-10-29T17:48:22.329Z,11.50
2022-10-29T17:51:01.817Z,11.55
2022-10-29T17:53:30.695Z,11.63
2022-10-29T17:55:59.920Z,11.55
2022-10-29T17:58:27.973Z,11.51
2022-10-29T18:01:02.423Z,11.43
2022-10-29T18:03:29.729Z,11.43
2022-10-29T18:06:05.889Z,11.42
2022-10-29T18:08:36.008Z,11.35
2022-10-29T18:11:17.446Z,11.32
2022-10-29T18:13:46.455Z,11.37
2022-10-29T18:16:18.541Z,11.27
2022-10-29T18:19:01.004Z,11.25
2022-10-29T18:21:30.348Z,11.12
2022-10-29T18:23:58.175Z,11.06
2022-10-29T18:26:34.231Z,11.03
2022-10-29T18:29:10.626Z,11.07
2022-10-29T18:31:40.262Z,10.92
2022-10-29T18:34:08.010Z,10.78
2022-10-29T18:36:38.963Z,10.79
2022-10-29T18:39:06.594Z,10.81
2022-10-29T18:41:34.944Z,10.72
2022-10-29T18:44:02.596Z,10.64
2022-10-29T18:46:30.025Z,10.49
2022-10-29T18:48:57.316Z,10.35
2022-10-29T18:51:30.565Z,10.37
2022-10-29T18:53:59.520Z,10.45
2022-10-29T18:56:29.477Z,10.51
2022-10-29T18:58:58.995Z,10.55
2022-10-29T19:01:31.727Z,10.48
2022-10-29T19:04:03.700Z,10.38
2022-10-29T19:06:34.335Z,10.31
2022-10-29T19:09:03.351Z,10.30
2022-10-29T19:11:30.891Z,10.14
2022-10-29T19:14:01.686Z,10.13
2022-10-29T19:16:31.128Z,10.13
2022-10-29T19:19:07.970Z,10.26
2022-10-29T19:21:37.189Z,10.28
2022-10-29T19:24:05.770Z,10.36
2022-10-29T19:26:35.902Z,10.40
2022-10-29T19:29:07.943Z,10.36
2022-10-29T19:31:36.779Z,10.35
2022-10-29T19:34:07.284Z,10.37
2022-10-29T19:36:36.952Z,10.33
2022-10-29T19:39:05.008Z,10.32
2022-10-29T19:41:33.014Z,10.25
2022-10-29T19:44:01.969Z,10.14
2022-10-29T19:46:30.313Z,10.15
2022-10-29T19:48:58.507Z,10.15
2022-10-29T19:51:25.970Z,10.25
2022-10-29T19:53:53.407Z,10.22
2022-10-29T19:56:21.754Z,10.17
2022-10-29T19:58:49.305Z,10.16
2022-10-29T20:01:19.008Z,10.14
2022-10-29T20:03:47.213Z,10.15
2022-10-29T20:06:15.921Z,10.13
2022-10-29T20:08:43.330Z,10.17
2022-10-29T20:11:10.855Z,10.11
2022-10-29T20:13:39.883Z,10.19
2022-10-29T20:16:10.278Z,10.19
2022-10-29T20:18:38.490Z,10.22
2022-10-29T20:23:38.710Z,10.00
2022-10-29T20:26:07.401Z,9.84
2022-10-29T20:28:35.257Z,9.80
2022-10-29T20:31:17.825Z,9.79
2022-10-29T20:33:59.285Z,9.85
2022-10-29T20:36:31.631Z,9.95
2022-10-29T20:38:59.099Z,10.00
2022-10-29T20:41:27.633Z,10.07
2022-10-29T20:43:58.021Z,10.13
2022-10-29T20:46:26.491Z,10.09
2022-10-29T20:48:53.898Z,10.00
2022-10-29T20:51:22.903Z,9.89
2022-10-29T20:53:51.593Z,9.83
2022-10-29T20:56:21.152Z,9.86
2022-10-29T20:58:48.563Z,9.99
2022-10-29T21:01:18.434Z,10.06
2022-10-29T21:03:48.108Z,9.95
2022-10-29T21:06:17.538Z,9.83
2022-10-29T21:08:51.108Z,9.85
2022-10-29T21:11:20.696Z,9.82
2022-10-29T21:13:48.077Z,9.81
2022-10-29T21:16:28.206Z,9.81
2022-10-29T21:18:58.598Z,9.83
2022-10-29T21:21:27.465Z,9.87
2022-10-29T21:23:56.389Z,9.96
2022-10-29T21:26:26.365Z,10.02
2022-10-29T21:28:54.662Z,10.18
2022-10-29T21:31:23.485Z,10.26
2022-10-29T21:33:52.556Z,10.42
2022-10-29T21:36:20.324Z,10.42
2022-10-29T21:38:48.265Z,10.47
2022-10-29T21:41:15.967Z,10.58
2022-10-29T21:43:43.203Z,10.62
2022-10-29T21:46:10.773Z,10.70
2022-10-29T21:48:37.931Z,10.82
2022-10-29T21:51:11.754Z,10.96
2022-10-29T21:53:39.039Z,10.99
2022-10-29T21:56:08.750Z,10.99
2022-10-29T21:58:35.984Z,11.05
2022-10-29T22:01:21.254Z,10.96
2022-10-29T22:03:48.533Z,11.01
2022-10-29T22:06:19.108Z,11.08
2022-10-29T22:08:47.139Z,11.06
2022-10-29T22:11:15.730Z,11.01
2022-10-29T22:13:42.944Z,10.85
2022-10-29T22:16:11.550Z,10.81
2022-10-29T22:18:39.888Z,10.76
2022-10-29T22:21:16.060Z,10.61
2022-10-29T22:23:58.205Z,10.66
2022-10-29T22:26:30.524Z,10.50
2022-10-29T22:28:57.937Z,10.45
2022-10-29T22:31:25.358Z,10.37
2022-10-29T22:33:52.819Z,10.28
2022-10-29T22:36:23.904Z,10.18
2022-10-29T22:39:00.032Z,10.14
2022-10-29T22:41:29.413Z,10.13
2022-10-29T22:44:00.050Z,10.14
2022-10-29T22:46:28.491Z,10.18
2022-10-29T22:48:56.490Z,10.07
2022-10-29T22:51:26.704Z,10.02
2022-10-29T22:53:54.838Z,10.11
2022-10-29T22:56:31.864Z,10.15
2022-10-29T22:58:59.610Z,10.06
2022-10-29T23:01:30.696Z,10.01
2022-10-29T23:03:59.183Z,9.96
2022-10-29T23:06:28.245Z,9.99
2022-10-29T23:09:04.005Z,9.90
2022-10-29T23:11:35.008Z,9.91
2022-10-29T23:14:03.006Z,9.84
2022-10-29T23:16:33.055Z,9.84
2022-10-29T23:19:02.914Z,9.93
2022-10-29T23:21:30.301Z,10.08
2022-10-29T23:23:58.269Z,10.12
2022-10-29T23:26:26.798Z,10.05
2022-10-29T23:28:54.079Z,9.92
2022-10-29T23:31:24.490Z,9.85
2022-10-29T23:33:54.353Z,9.83
2022-10-29T23:36:23.957Z,9.98
2022-10-29T23:38:59.942Z,10.22
2022-10-29T23:41:31.661Z,10.27
2022-10-29T23:43:59.425Z,10.43
2022-10-29T23:46:26.597Z,10.27
2022-10-29T23:48:54.321Z,10.10
2022-10-29T23:51:21.927Z,9.97
2022-10-29T23:53:53.124Z,9.91
2022-10-29T23:56:23.735Z,9.83
2022-10-29T23:58:50.865Z,9.79
